createdAt,value
2018-07-21T00:00:48.457Z,18.70
2018-07-21T00:03:17.627Z,18.70
2018-07-21T00:05:46.766Z,18.50
2018-07-21T00:08:15.934Z,18.40
2018-07-21T00:10:45.121Z,18.30
2018-07-21T00:13:14.336Z,18.30
2018-07-21T00:15:43.558Z,18.20
2018-07-21T00:18:12.729Z,18.20
2018-07-21T00:20:42.012Z,18.00
2018-07-21T00:23:11.175Z,17.90
2018-07-21T00:25:40.403Z,17.80
2018-07-21T00:28:09.608Z,17.70
2018-07-21T00:30:38.845Z,17.70
2018-07-21T00:33:08.085Z,17.70
2018-07-21T00:35:37.309Z,17.70
2018-07-21T00:38:06.445Z,17.60
2018-07-21T00:40:35.606Z,17.50
2018-07-21T00:43:04.840Z,17.50
2018-07-21T00:45:34.032Z,17.40
2018-07-21T00:48:03.204Z,17.40
2018-07-21T00:50:32.402Z,17.40
2018-07-21T00:53:01.603Z,17.30
2018-07-21T00:55:30.841Z,17.20
2018-07-21T00:58:00.075Z,17.10
2018-07-21T01:00:29.268Z,17.00
2018-07-21T01:02:58.493Z,16.90
2018-07-21T01:05:27.799Z,16.90
2018-07-21T01:07:57.012Z,16.90
2018-07-21T01:10:26.151Z,16.80
2018-07-21T01:12:55.426Z,16.70
2018-07-21T01:15:24.570Z,16.60
2018-07-21T01:17:53.846Z,16.60
2018-07-21T01:20:23.384Z,16.50
2018-07-21T01:22:52.612Z,16.50
2018-07-21T01:25:21.763Z,16.40
2018-07-21T01:27:50.939Z,16.30
2018-07-21T01:30:20.241Z,16.20
2018-07-21T01:32:49.455Z,16.20
2018-07-21T01:35:18.684Z,16.10
2018-07-21T01:37:47.884Z,16.10
2018-07-21T01:40:17.051Z,16.10
2018-07-21T01:42:46.332Z,16.00
2018-07-21T01:45:15.530Z,16.00
2018-07-21T01:47:44.697Z,16.10
2018-07-21T01:50:13.870Z,16.00
2018-07-21T01:52:43.143Z,16.00
2018-07-21T01:55:12.337Z,16.00
2018-07-21T01:57:41.544Z,15.90
2018-07-21T02:00:10.774Z,16.00
2018-07-21T02:02:39.993Z,15.90
2018-07-21T02:05:09.221Z,15.90
2018-07-21T02:07:38.511Z,15.90
2018-07-21T02:10:07.789Z,15.90
2018-07-21T02:12:37.069Z,15.90
2018-07-21T02:15:06.300Z,15.90
2018-07-21T02:17:35.535Z,15.80
2018-07-21T02:20:04.984Z,15.80
2018-07-21T02:22:34.245Z,15.90
2018-07-21T02:25:03.534Z,16.00
2018-07-21T02:30:01.887Z,15.90
2018-07-21T02:32:31.105Z,15.90
2018-07-21T02:35:00.264Z,15.90
2018-07-21T02:37:29.437Z,15.90
2018-07-21T02:39:58.576Z,15.90
2018-07-21T02:42:27.866Z,16.00
2018-07-21T02:44:57.041Z,16.00
2018-07-21T02:47:26.278Z,15.90
2018-07-21T02:49:55.444Z,15.90
2018-07-21T02:52:24.626Z,15.90
2018-07-21T02:54:53.786Z,15.90
2018-07-21T02:57:22.975Z,15.70
2018-07-21T02:59:52.114Z,15.80
2018-07-21T03:02:21.329Z,15.70
2018-07-21T03:04:50.482Z,15.80
2018-07-21T03:07:19.678Z,15.80
2018-07-21T03:09:48.871Z,15.70
2018-07-21T03:12:18.057Z,15.70
2018-07-21T03:14:47.290Z,15.60
2018-07-21T03:17:16.445Z,15.60
2018-07-21T03:19:45.598Z,15.60
2018-07-21T03:22:14.811Z,15.60
2018-07-21T03:24:44.097Z,15.50
2018-07-21T03:27:13.304Z,15.50
2018-07-21T03:32:11.530Z,15.60
2018-07-21T03:34:40.954Z,15.60
2018-07-21T03:37:10.478Z,15.60
2018-07-21T03:39:39.856Z,15.70
2018-07-21T03:42:09.145Z,15.60
2018-07-21T03:44:38.636Z,15.70
2018-07-21T03:47:08.110Z,15.70
2018-07-21T03:49:37.392Z,15.60
2018-07-21T03:52:06.740Z,15.60
2018-07-21T03:54:36.046Z,15.70
2018-07-21T03:57:05.293Z,15.70
2018-07-21T03:59:34.621Z,15.80
2018-07-21T04:02:03.908Z,15.80
2018-07-21T04:07:01.985Z,15.80
2018-07-21T04:09:31.229Z,15.80
2018-07-21T04:12:00.543Z,15.90
2018-07-21T04:14:29.819Z,15.90
2018-07-21T04:16:59.117Z,15.90
2018-07-21T04:21:57.269Z,16.00
2018-07-21T04:24:26.539Z,16.10
2018-07-21T04:26:55.766Z,16.10
2018-07-21T04:29:24.982Z,16.20
2018-07-21T04:31:54.484Z,16.20
2018-07-21T04:34:23.830Z,16.30
2018-07-21T04:36:53.037Z,16.30
2018-07-21T04:39:22.270Z,16.40
2018-07-21T04:41:51.513Z,16.50
2018-07-21T04:44:20.861Z,16.50
2018-07-21T04:46:50.139Z,16.70
2018-07-21T04:49:19.365Z,16.80
2018-07-21T04:51:48.796Z,16.90
2018-07-21T04:54:18.051Z,17.00
2018-07-21T04:56:47.363Z,17.10
2018-07-21T04:59:16.645Z,17.20
2018-07-21T05:01:45.916Z,17.20
2018-07-21T05:04:15.213Z,17.30
2018-07-21T05:06:44.544Z,17.40
2018-07-21T05:09:13.993Z,17.50
2018-07-21T05:11:43.382Z,17.60
2018-07-21T05:14:12.793Z,17.80
2018-07-21T05:16:42.168Z,18.00
2018-07-21T05:19:11.568Z,18.30
2018-07-21T05:21:40.851Z,18.50
2018-07-21T05:26:38.948Z,18.90
2018-07-21T05:29:08.287Z,19.10
2018-07-21T05:31:37.699Z,19.40
2018-07-21T05:34:07.002Z,19.80
2018-07-21T05:36:36.271Z,20.20
2018-07-21T05:39:07.053Z,20.50
2018-07-21T05:41:36.350Z,20.90
2018-07-21T05:44:05.704Z,21.40
2018-07-21T05:46:35.359Z,22.00
2018-07-21T05:49:04.641Z,22.30
2018-07-21T05:51:33.974Z,22.70
2018-07-21T05:54:03.238Z,22.90
2018-07-21T05:56:32.505Z,23.20
2018-07-21T05:59:01.762Z,23.20
2018-07-21T06:01:31.097Z,23.20
2018-07-21T06:06:29.294Z,23.00
2018-07-21T06:08:58.950Z,22.90
2018-07-21T06:11:28.228Z,22.70
2018-07-21T06:13:57.530Z,22.30
2018-07-21T06:16:26.818Z,22.00
2018-07-21T06:18:56.193Z,21.70
2018-07-21T06:21:25.445Z,21.40
2018-07-21T06:23:54.724Z,21.20
2018-07-21T06:26:24.022Z,20.90
2018-07-21T06:28:53.310Z,20.60
2018-07-21T06:31:22.653Z,20.50
2018-07-21T06:33:51.926Z,20.40
2018-07-21T06:36:21.498Z,20.20
2018-07-21T06:38:50.757Z,20.00
2018-07-21T06:41:20.100Z,20.00
2018-07-21T06:43:49.481Z,20.10
2018-07-21T06:46:18.786Z,20.10
2018-07-21T06:48:48.092Z,20.40
2018-07-21T06:51:17.401Z,20.60
2018-07-21T06:53:46.763Z,20.80
2018-07-21T06:56:16.366Z,21.10
2018-07-21T06:58:45.691Z,21.10
2018-07-21T07:01:15.275Z,21.10
2018-07-21T07:03:44.545Z,21.20
2018-07-21T07:06:13.791Z,21.30
2018-07-21T07:08:43.133Z,21.60
2018-07-21T07:11:12.612Z,21.60
2018-07-21T07:13:41.952Z,21.30
2018-07-21T07:18:40.069Z,20.90
2018-07-21T07:21:09.487Z,20.90
2018-07-21T07:23:38.973Z,20.80
2018-07-21T07:26:08.336Z,20.80
2018-07-21T07:28:37.707Z,20.90
2018-07-21T07:31:07.081Z,20.90
2018-07-21T07:33:36.424Z,20.60
2018-07-21T07:36:05.734Z,20.40
2018-07-21T07:38:35.001Z,20.30
2018-07-21T07:41:04.385Z,20.20
2018-07-21T07:43:33.752Z,20.40
2018-07-21T07:46:03.036Z,20.60
2018-07-21T07:48:32.295Z,20.80
2018-07-21T07:51:01.559Z,20.50
2018-07-21T07:53:31.526Z,20.40
2018-07-21T07:56:07.694Z,20.40
2018-07-21T07:58:38.670Z,20.30
2018-07-21T08:01:08.833Z,20.30
2018-07-21T08:03:39.972Z,20.30
2018-07-21T08:06:10.305Z,20.50
2018-07-21T08:08:40.745Z,20.90
2018-07-21T08:11:10.160Z,21.30
2018-07-21T08:13:39.457Z,21.50
2018-07-21T08:16:08.732Z,21.70
2018-07-21T08:18:38.050Z,22.00
2018-07-21T08:21:07.479Z,21.90
2018-07-21T08:23:37.698Z,22.00
2018-07-21T08:26:07.884Z,22.30
2018-07-21T08:28:37.238Z,22.70
2018-07-21T08:31:06.561Z,22.90
2018-07-21T08:33:35.854Z,23.20
2018-07-21T08:36:05.368Z,23.40
2018-07-21T08:38:34.733Z,23.60
2018-07-21T08:41:04.008Z,23.50
2018-07-21T08:43:33.331Z,23.40
2018-07-21T08:46:02.611Z,23.40
2018-07-21T08:48:31.894Z,23.40
2018-07-21T08:51:01.120Z,23.40
2018-07-21T08:53:30.393Z,23.60
2018-07-21T08:55:59.657Z,23.70
2018-07-21T08:58:28.958Z,23.60
2018-07-21T09:00:58.317Z,23.50
2018-07-21T09:03:27.586Z,23.50
2018-07-21T09:05:56.873Z,23.70
2018-07-21T09:08:26.141Z,23.80
2018-07-21T09:10:55.588Z,23.70
2018-07-21T09:13:25.348Z,23.40
2018-07-21T09:15:55.595Z,23.40
2018-07-21T09:18:24.946Z,23.50
2018-07-21T09:20:54.237Z,23.50
2018-07-21T09:23:23.505Z,23.60
2018-07-21T09:25:52.863Z,23.70
2018-07-21T09:28:22.229Z,23.80
2018-07-21T09:30:51.502Z,23.80
2018-07-21T09:33:20.799Z,23.80
2018-07-21T09:35:50.078Z,23.70
2018-07-21T09:38:19.376Z,23.70
2018-07-21T09:40:48.643Z,23.60
2018-07-21T09:43:17.889Z,23.90
2018-07-21T09:45:47.226Z,23.80
2018-07-21T09:48:16.465Z,23.90
2018-07-21T09:50:45.828Z,24.00
2018-07-21T09:53:15.104Z,23.70
2018-07-21T09:55:44.481Z,23.50
2018-07-21T09:58:13.761Z,23.70
2018-07-21T10:00:48.481Z,23.60
2018-07-21T10:03:17.706Z,23.80
2018-07-21T10:05:46.996Z,23.80
2018-07-21T10:08:16.323Z,24.00
2018-07-21T10:10:45.687Z,24.00
2018-07-21T10:13:14.997Z,24.00
2018-07-21T10:15:44.269Z,24.00
2018-07-21T10:18:13.520Z,23.80
2018-07-21T10:20:42.819Z,23.80
2018-07-21T10:23:12.367Z,24.20
2018-07-21T10:25:46.818Z,24.50
2018-07-21T10:28:21.655Z,24.70
2018-07-21T10:30:50.850Z,24.90
2018-07-21T10:33:20.172Z,25.20
2018-07-21T10:35:49.461Z,25.30
2018-07-21T10:38:18.985Z,25.40
2018-07-21T10:40:48.249Z,25.70
2018-07-21T10:43:17.506Z,25.40
2018-07-21T10:45:46.787Z,25.40
2018-07-21T10:48:16.133Z,25.10
2018-07-21T10:50:45.469Z,24.80
2018-07-21T10:53:14.667Z,24.50
2018-07-21T10:55:43.941Z,24.10
2018-07-21T10:58:13.239Z,23.90
2018-07-21T11:00:42.614Z,23.70
2018-07-21T11:03:11.947Z,23.60
2018-07-21T11:05:41.467Z,23.50
2018-07-21T11:08:10.790Z,23.60
2018-07-21T11:10:40.034Z,23.50
2018-07-21T11:13:09.314Z,23.40
2018-07-21T11:15:38.621Z,23.30
2018-07-21T11:18:07.973Z,23.40
2018-07-21T11:20:37.280Z,23.30
2018-07-21T11:23:06.550Z,23.40
2018-07-21T11:25:35.872Z,23.30
2018-07-21T11:28:05.416Z,23.20
2018-07-21T11:30:34.709Z,23.00
2018-07-21T11:33:04.119Z,23.10
2018-07-21T11:35:33.603Z,23.00
2018-07-21T11:38:02.975Z,23.10
2018-07-21T11:40:32.459Z,23.20
2018-07-21T11:43:01.970Z,23.10
2018-07-21T11:45:31.358Z,23.20
2018-07-21T11:48:00.625Z,23.20
2018-07-21T11:50:30.008Z,23.10
2018-07-21T11:52:59.422Z,23.10
2018-07-21T11:55:28.686Z,23.30
2018-07-21T11:57:58.005Z,23.50
2018-07-21T12:00:27.291Z,23.70
2018-07-21T12:02:56.609Z,23.90
2018-07-21T12:05:25.944Z,24.00
2018-07-21T12:07:55.529Z,24.20
2018-07-21T12:10:24.936Z,24.30
2018-07-21T12:12:54.279Z,24.50
2018-07-21T12:15:23.648Z,24.60
2018-07-21T12:17:52.908Z,24.60
2018-07-21T12:20:22.263Z,24.50
2018-07-21T12:22:51.608Z,24.50
2018-07-21T12:25:20.876Z,24.50
2018-07-21T12:27:50.145Z,24.30
2018-07-21T12:30:19.417Z,24.30
2018-07-21T12:32:48.699Z,24.30
2018-07-21T12:35:18.205Z,24.20
2018-07-21T12:37:47.520Z,24.10
2018-07-21T12:40:16.770Z,24.20
2018-07-21T12:42:46.123Z,24.30
2018-07-21T12:45:15.374Z,24.40
2018-07-21T12:47:44.654Z,24.40
2018-07-21T12:50:14.008Z,24.30
2018-07-21T12:52:43.252Z,24.20
2018-07-21T12:55:12.489Z,24.00
2018-07-21T12:57:41.757Z,23.90
2018-07-21T13:00:11.053Z,23.90
2018-07-21T13:02:40.734Z,23.80
2018-07-21T13:05:10.013Z,24.00
2018-07-21T13:07:39.292Z,24.10
2018-07-21T13:10:08.530Z,24.10
2018-07-21T13:12:37.874Z,24.00
2018-07-21T13:15:07.513Z,24.00
2018-07-21T13:17:36.904Z,24.10
2018-07-21T13:20:06.317Z,24.20
2018-07-21T13:22:35.562Z,24.20
2018-07-21T13:25:04.993Z,24.30
2018-07-21T13:27:34.349Z,24.40
2018-07-21T13:30:03.685Z,24.70
2018-07-21T13:32:33.000Z,24.70
2018-07-21T13:35:02.254Z,24.90
2018-07-21T13:37:31.541Z,25.00
2018-07-21T13:40:00.889Z,24.60
2018-07-21T13:42:30.228Z,24.60
2018-07-21T13:44:59.525Z,24.60
2018-07-21T13:47:28.798Z,24.70
2018-07-21T13:49:58.163Z,24.70
2018-07-21T13:52:27.517Z,24.60
2018-07-21T13:54:56.884Z,24.50
2018-07-21T13:57:26.242Z,24.70
2018-07-21T13:59:55.482Z,24.40
2018-07-21T14:02:24.731Z,24.50
2018-07-21T14:04:54.287Z,24.30
2018-07-21T14:07:23.697Z,24.30
2018-07-21T14:09:53.322Z,24.30
2018-07-21T14:12:22.588Z,24.50
2018-07-21T14:14:51.973Z,24.70
2018-07-21T14:17:21.289Z,24.90
2018-07-21T14:19:50.522Z,24.90
2018-07-21T14:22:19.872Z,24.70
2018-07-21T14:24:49.187Z,24.30
2018-07-21T14:27:18.473Z,24.10
2018-07-21T14:29:47.867Z,24.10
2018-07-21T14:32:17.181Z,24.10
2018-07-21T14:34:46.490Z,23.90
2018-07-21T14:37:15.783Z,23.90
2018-07-21T14:39:45.128Z,24.00
2018-07-21T14:42:14.391Z,24.20
2018-07-21T14:44:43.654Z,24.20
2018-07-21T14:47:13.089Z,24.20
2018-07-21T14:49:42.345Z,24.30
2018-07-21T14:52:11.673Z,24.20
2018-07-21T14:54:41.050Z,24.20
2018-07-21T14:57:10.286Z,24.10
2018-07-21T14:59:39.614Z,24.10
2018-07-21T15:02:08.856Z,24.00
2018-07-21T15:04:38.281Z,23.70
2018-07-21T15:07:07.569Z,23.60
2018-07-21T15:09:36.900Z,23.60
2018-07-21T15:12:06.249Z,23.60
2018-07-21T15:14:35.571Z,23.60
2018-07-21T15:17:04.929Z,23.40
2018-07-21T15:19:34.307Z,23.30
2018-07-21T15:22:03.624Z,23.40
2018-07-21T15:24:32.886Z,23.40
2018-07-21T15:27:02.179Z,23.40
2018-07-21T15:29:31.529Z,23.10
2018-07-21T15:32:00.858Z,23.20
2018-07-21T15:34:30.134Z,22.90
2018-07-21T15:36:59.417Z,22.70
2018-07-21T15:39:28.767Z,22.80
2018-07-21T15:41:58.099Z,22.70
2018-07-21T15:44:27.398Z,22.80
2018-07-21T15:46:56.698Z,22.80
2018-07-21T15:49:26.059Z,22.70
2018-07-21T15:51:55.514Z,22.80
2018-07-21T15:54:25.861Z,22.90
2018-07-21T15:56:55.407Z,23.00
2018-07-21T15:59:24.776Z,23.10
2018-07-21T16:01:54.050Z,23.20
2018-07-21T16:04:23.436Z,23.20
2018-07-21T16:06:52.657Z,23.10
2018-07-21T16:09:22.021Z,23.00
2018-07-21T16:11:51.298Z,23.00
2018-07-21T16:14:21.049Z,23.00
2018-07-21T16:16:50.447Z,23.00
2018-07-21T16:19:19.820Z,23.00
2018-07-21T16:21:49.081Z,23.00
2018-07-21T16:24:18.401Z,23.00
2018-07-21T16:26:47.673Z,23.00
2018-07-21T16:29:17.215Z,23.00
2018-07-21T16:31:46.513Z,22.80
2018-07-21T16:34:15.809Z,22.60
2018-07-21T16:36:45.162Z,22.50
2018-07-21T16:39:14.442Z,22.40
2018-07-21T16:41:43.749Z,22.20
2018-07-21T16:44:13.009Z,22.20
2018-07-21T16:46:42.326Z,22.20
2018-07-21T16:49:11.648Z,22.20
2018-07-21T16:51:40.890Z,22.10
2018-07-21T16:54:10.140Z,22.10
2018-07-21T16:56:39.445Z,22.00
2018-07-21T16:59:08.730Z,21.90
2018-07-21T17:01:38.039Z,21.80
2018-07-21T17:04:07.777Z,21.70
2018-07-21T17:06:37.050Z,21.60
2018-07-21T17:09:07.938Z,21.70
2018-07-21T17:11:37.302Z,21.60
2018-07-21T17:14:07.000Z,21.50
2018-07-21T17:16:36.262Z,21.50
2018-07-21T17:19:05.959Z,21.50
2018-07-21T17:21:35.259Z,21.40
2018-07-21T17:24:04.504Z,21.40
2018-07-21T17:26:33.797Z,21.50
2018-07-21T17:29:03.137Z,21.50
2018-07-21T17:31:32.459Z,21.50
2018-07-21T17:34:01.775Z,21.50
2018-07-21T17:36:31.062Z,21.50
2018-07-21T17:39:00.326Z,21.60
2018-07-21T17:41:29.695Z,21.60
2018-07-21T17:43:58.909Z,21.60
2018-07-21T17:46:28.159Z,21.60
2018-07-21T17:48:57.497Z,21.60
2018-07-21T17:51:26.830Z,21.60
2018-07-21T17:53:56.169Z,21.70
2018-07-21T17:56:25.592Z,21.70
2018-07-21T17:58:54.840Z,21.70
2018-07-21T18:01:24.104Z,21.70
2018-07-21T18:03:53.472Z,21.60
2018-07-21T18:06:22.789Z,21.60
2018-07-21T18:08:52.144Z,21.50
2018-07-21T18:11:21.469Z,21.40
2018-07-21T18:13:57.561Z,21.20
2018-07-21T18:16:26.850Z,21.10
2018-07-21T18:18:57.191Z,21.10
2018-07-21T18:21:26.952Z,21.00
2018-07-21T18:23:57.826Z,20.90
2018-07-21T18:26:29.430Z,20.80
2018-07-21T18:28:58.898Z,20.70
2018-07-21T18:31:28.672Z,20.60
2018-07-21T18:33:58.505Z,20.50
2018-07-21T18:36:27.856Z,20.50
2018-07-21T18:38:57.119Z,20.30
2018-07-21T18:41:26.474Z,20.20
2018-07-21T18:43:56.341Z,20.10
2018-07-21T18:46:27.248Z,20.00
2018-07-21T18:48:56.704Z,19.90
2018-07-21T18:51:27.372Z,19.80
2018-07-21T18:53:56.815Z,19.80
2018-07-21T18:56:27.281Z,19.70
2018-07-21T18:58:57.313Z,19.70
2018-07-21T19:01:26.726Z,19.60
2018-07-21T19:03:57.527Z,19.50
2018-07-21T19:06:26.882Z,19.50
2018-07-21T19:09:01.039Z,19.40
2018-07-21T19:11:32.648Z,19.30
2018-07-21T19:14:02.181Z,19.20
2018-07-21T19:16:38.101Z,19.20
2018-07-21T19:19:08.756Z,19.10
2018-07-21T19:21:38.204Z,19.00
2018-07-21T19:24:07.881Z,18.90
2018-07-21T19:26:42.380Z,18.80
2018-07-21T19:29:11.710Z,18.70
2018-07-21T19:31:46.548Z,18.70
2018-07-21T19:34:16.055Z,18.60
2018-07-21T19:36:45.360Z,18.50
2018-07-21T19:39:15.126Z,18.50
2018-07-21T19:41:50.182Z,18.50
2018-07-21T19:44:19.850Z,18.50
2018-07-21T19:46:49.931Z,18.40
2018-07-21T19:49:20.801Z,18.30
2018-07-21T19:51:51.819Z,18.30
2018-07-21T19:54:21.613Z,18.30
2018-07-21T19:56:51.085Z,18.20
2018-07-21T19:59:21.280Z,18.10
2018-07-21T20:01:50.719Z,18.10
2018-07-21T20:04:20.787Z,18.10
2018-07-21T20:06:50.379Z,18.00
2018-07-21T20:09:19.829Z,18.00
2018-07-21T20:11:49.831Z,18.00
2018-07-21T20:14:19.350Z,18.00
2018-07-21T20:16:49.327Z,18.00
2018-07-21T20:19:19.383Z,18.10
2018-07-21T20:21:48.722Z,18.10
2018-07-21T20:24:17.968Z,18.20
2018-07-21T20:26:50.272Z,18.10
2018-07-21T20:29:19.607Z,18.10
2018-07-21T20:31:48.897Z,18.00
2018-07-21T20:34:18.445Z,17.90
2018-07-21T20:36:47.784Z,17.90
2018-07-21T20:39:17.158Z,17.90
2018-07-21T20:41:46.489Z,17.80
2018-07-21T20:44:16.340Z,17.70
2018-07-21T20:46:46.360Z,17.70
2018-07-21T20:49:15.598Z,17.60
2018-07-21T20:51:44.873Z,17.50
2018-07-21T20:54:14.161Z,17.50
2018-07-21T20:56:43.448Z,17.50
2018-07-21T20:59:12.760Z,17.50
2018-07-21T21:01:42.015Z,17.50
2018-07-21T21:04:11.381Z,17.50
2018-07-21T21:06:40.687Z,17.50
2018-07-21T21:09:10.815Z,17.50
2018-07-21T21:11:40.202Z,17.40
2018-07-21T21:14:09.468Z,17.30
2018-07-21T21:16:38.936Z,17.30
2018-07-21T21:19:08.271Z,17.30
2018-07-21T21:21:37.537Z,17.30
2018-07-21T21:24:06.767Z,17.30
2018-07-21T21:26:36.062Z,17.30
2018-07-21T21:29:05.518Z,17.30
2018-07-21T21:31:34.811Z,17.30
2018-07-21T21:34:04.122Z,17.40
2018-07-21T21:36:33.407Z,17.30
2018-07-21T21:39:02.758Z,17.20
2018-07-21T21:41:32.040Z,17.00
2018-07-21T21:44:01.346Z,17.00
2018-07-21T21:46:30.686Z,16.90
2018-07-21T21:48:59.945Z,16.90
2018-07-21T21:51:29.189Z,16.90
2018-07-21T21:53:58.529Z,16.90
2018-07-21T21:56:27.782Z,16.90
2018-07-21T21:58:57.100Z,16.80
2018-07-21T22:01:27.606Z,16.70
2018-07-21T22:03:57.023Z,16.70
2018-07-21T22:06:26.457Z,16.60
2018-07-21T22:08:56.706Z,16.60
2018-07-21T22:11:26.380Z,16.50
2018-07-21T22:13:56.884Z,16.50
2018-07-21T22:16:28.326Z,16.50
2018-07-21T22:18:57.722Z,16.50
2018-07-21T22:21:27.308Z,16.40
2018-07-21T22:23:56.511Z,16.40
2018-07-21T22:26:25.785Z,16.40
2018-07-21T22:28:55.069Z,16.30
2018-07-21T22:31:24.420Z,16.30
2018-07-21T22:33:53.667Z,16.30
2018-07-21T22:36:23.728Z,16.20
2018-07-21T22:38:53.846Z,16.20
2018-07-21T22:41:23.196Z,16.20
2018-07-21T22:43:52.629Z,16.20
2018-07-21T22:46:21.905Z,16.20
2018-07-21T22:48:51.169Z,16.20
2018-07-21T22:51:20.480Z,16.20
2018-07-21T22:53:49.736Z,16.20
2018-07-21T22:56:19.138Z,16.10
2018-07-21T22:58:48.422Z,16.10
2018-07-21T23:01:17.828Z,16.10
2018-07-21T23:03:47.185Z,16.10
2018-07-21T23:06:16.560Z,16.00
2018-07-21T23:08:45.780Z,16.00
2018-07-21T23:11:15.051Z,15.90
2018-07-21T23:13:44.400Z,15.90
2018-07-21T23:16:13.992Z,15.90
2018-07-21T23:18:43.592Z,15.80
2018-07-21T23:21:12.938Z,15.70
2018-07-21T23:23:42.220Z,15.70
2018-07-21T23:26:11.620Z,15.60
2018-07-21T23:28:40.868Z,15.70
2018-07-21T23:31:10.268Z,15.60
2018-07-21T23:33:39.741Z,15.60
2018-07-21T23:36:09.108Z,15.60
2018-07-21T23:38:38.459Z,15.50
2018-07-21T23:41:07.779Z,15.50
2018-07-21T23:43:37.275Z,15.60
2018-07-21T23:46:06.533Z,15.60
2018-07-21T23:48:35.831Z,15.50
2018-07-21T23:51:05.270Z,15.60
2018-07-21T23:53:34.590Z,15.60
2018-07-21T23:56:03.819Z,15.50
2018-07-21T23:58:33.114Z,15.60
